createdAt,value
2022-10-15T00:00:05.359Z,11.04
2022-10-15T00:02:31.963Z,11.03
2022-10-15T00:05:01.928Z,11.05
2022-10-15T00:07:29.090Z,11.00
2022-10-15T00:09:55.764Z,11.02
2022-10-15T00:12:23.895Z,11.02
2022-10-15T00:14:50.729Z,10.93
2022-10-15T00:17:42.396Z,10.89
2022-10-15T00:20:10.903Z,10.91
2022-10-15T00:22:37.899Z,10.96
2022-10-15T00:25:05.516Z,10.98
2022-10-15T00:27:42.237Z,10.87
2022-10-15T00:30:09.469Z,10.87
2022-10-15T00:32:36.139Z,10.98
2022-10-15T00:35:09.081Z,10.87
2022-10-15T00:37:35.736Z,10.76
2022-10-15T00:42:33.979Z,10.79
2022-10-15T00:45:02.908Z,10.72
2022-10-15T00:47:44.903Z,10.72
2022-10-15T00:50:23.959Z,10.87
2022-10-15T00:53:12.034Z,11.13
2022-10-15T00:55:47.049Z,11.20
2022-10-15T00:58:38.007Z,11.19
2022-10-15T01:01:07.826Z,10.91
2022-10-15T01:03:36.229Z,10.90
2022-10-15T01:06:03.669Z,11.03
2022-10-15T01:08:39.962Z,11.18
2022-10-15T01:11:19.150Z,11.19
2022-10-15T01:14:11.877Z,10.99
2022-10-15T01:16:53.397Z,10.82
2022-10-15T01:19:38.192Z,10.82
2022-10-15T01:22:11.473Z,10.70
2022-10-15T01:25:20.585Z,10.77
2022-10-15T01:28:05.585Z,10.76
2022-10-15T01:30:58.502Z,10.84
2022-10-15T01:33:43.879Z,10.87
2022-10-15T01:36:31.709Z,11.00
2022-10-15T01:39:24.589Z,11.02
2022-10-15T01:42:01.536Z,11.04
2022-10-15T01:44:32.431Z,10.94
2022-10-15T01:47:20.184Z,10.87
2022-10-15T01:49:47.863Z,10.85
2022-10-15T01:52:22.306Z,10.75
2022-10-15T01:54:50.463Z,10.76
2022-10-15T01:57:18.533Z,10.97
2022-10-15T01:59:51.307Z,10.98
2022-10-15T02:02:22.706Z,10.72
2022-10-15T02:04:49.568Z,10.67
2022-10-15T02:07:33.802Z,10.61
2022-10-15T02:10:08.262Z,10.53
2022-10-15T02:12:43.787Z,10.73
2022-10-15T02:15:19.547Z,10.62
2022-10-15T02:17:58.363Z,10.52
2022-10-15T02:20:35.209Z,10.63
2022-10-15T02:23:17.917Z,10.40
2022-10-15T02:25:47.665Z,10.42
2022-10-15T02:28:18.294Z,10.48
2022-10-15T02:30:48.486Z,10.43
2022-10-15T02:33:20.412Z,10.50
2022-10-15T02:35:48.723Z,10.54
2022-10-15T02:38:21.278Z,10.59
2022-10-15T02:40:54.440Z,10.61
2022-10-15T02:43:22.228Z,10.67
2022-10-15T02:45:50.505Z,10.79
2022-10-15T02:48:25.791Z,10.72
2022-10-15T02:50:52.517Z,10.75
2022-10-15T02:53:19.184Z,10.81
2022-10-15T02:55:48.531Z,10.64
2022-10-15T02:58:15.340Z,10.50
2022-10-15T03:00:44.552Z,10.47
2022-10-15T03:03:12.630Z,10.57
2022-10-15T03:05:46.557Z,10.53
2022-10-15T03:08:18.763Z,10.50
2022-10-15T03:10:46.675Z,10.46
2022-10-15T03:13:13.673Z,10.50
2022-10-15T03:15:47.292Z,10.47
2022-10-15T03:18:15.411Z,10.60
2022-10-15T03:20:46.774Z,10.58
2022-10-15T03:23:16.485Z,10.64
2022-10-15T03:25:44.609Z,10.52
2022-10-15T03:28:22.225Z,10.54
2022-10-15T03:30:49.617Z,10.48
2022-10-15T03:33:19.000Z,10.59
2022-10-15T03:35:47.936Z,10.47
2022-10-15T03:38:39.535Z,10.48
2022-10-15T03:41:10.506Z,10.59
2022-10-15T03:43:48.229Z,10.81
2022-10-15T03:46:16.496Z,10.78
2022-10-15T03:48:49.628Z,10.67
2022-10-15T03:51:20.475Z,10.63
2022-10-15T03:54:30.200Z,10.69
2022-10-15T03:56:57.854Z,10.74
2022-10-15T03:59:32.076Z,10.82
2022-10-15T04:02:01.493Z,10.81
2022-10-15T04:04:29.053Z,10.90
2022-10-15T04:06:56.293Z,10.91
2022-10-15T04:09:23.667Z,10.87
2022-10-15T04:11:50.376Z,10.92
2022-10-15T04:14:19.443Z,10.91
2022-10-15T04:16:46.126Z,10.85
2022-10-15T04:19:18.063Z,10.85
2022-10-15T04:21:58.167Z,10.85
2022-10-15T04:24:32.474Z,10.74
2022-10-15T04:27:01.574Z,10.64
2022-10-15T04:29:30.959Z,10.68
2022-10-15T04:32:22.583Z,10.74
2022-10-15T04:35:00.801Z,10.72
2022-10-15T04:37:46.626Z,10.57
2022-10-15T04:40:14.836Z,10.60
2022-10-15T04:42:42.134Z,10.58
2022-10-15T04:45:10.465Z,10.60
2022-10-15T04:47:39.995Z,10.52
2022-10-15T04:50:14.946Z,10.30
2022-10-15T04:53:01.879Z,10.32
2022-10-15T04:55:32.655Z,10.23
2022-10-15T04:58:01.052Z,10.06
2022-10-15T05:00:29.801Z,10.02
2022-10-15T05:03:15.143Z,10.31
2022-10-15T05:05:53.673Z,10.26
2022-10-15T05:08:20.766Z,10.32
2022-10-15T05:11:18.666Z,10.47
2022-10-15T05:13:45.624Z,10.45
2022-10-15T05:16:17.132Z,10.57
2022-10-15T05:18:48.903Z,10.48
2022-10-15T05:21:16.382Z,10.44
2022-10-15T05:23:47.978Z,10.55
2022-10-15T05:26:34.660Z,10.59
2022-10-15T05:29:03.797Z,10.49
2022-10-15T05:31:35.920Z,10.54
2022-10-15T05:34:13.160Z,10.50
2022-10-15T05:37:00.002Z,10.48
2022-10-15T05:39:44.221Z,10.57
2022-10-15T05:42:41.133Z,10.60
2022-10-15T05:45:08.492Z,10.57
2022-10-15T05:47:35.185Z,10.52
2022-10-15T05:50:14.790Z,10.45
2022-10-15T05:52:45.278Z,10.47
2022-10-15T05:55:32.355Z,10.38
2022-10-15T05:58:03.262Z,10.43
2022-10-15T06:00:29.934Z,10.56
2022-10-15T06:02:56.527Z,10.77
2022-10-15T06:05:24.442Z,10.74
2022-10-15T06:07:58.349Z,10.75
2022-10-15T06:10:25.545Z,10.81
2022-10-15T06:12:52.453Z,10.80
2022-10-15T06:15:28.394Z,10.86
2022-10-15T06:17:54.959Z,10.95
2022-10-15T06:20:21.579Z,11.03
2022-10-15T06:23:02.318Z,11.03
2022-10-15T06:25:32.614Z,11.10
2022-10-15T06:28:03.447Z,11.16
2022-10-15T06:30:41.680Z,11.24
2022-10-15T06:33:16.128Z,11.18
2022-10-15T06:35:46.724Z,11.25
2022-10-15T06:38:13.414Z,11.25
2022-10-15T06:40:48.754Z,11.31
2022-10-15T06:49:19.916Z,11.37
2022-10-15T06:59:10.670Z,11.39
2022-10-15T07:01:39.928Z,11.47
2022-10-15T07:04:08.864Z,11.39
2022-10-15T07:06:35.775Z,11.31
2022-10-15T07:09:03.159Z,11.42
2022-10-15T07:11:29.831Z,11.41
2022-10-15T07:13:59.666Z,11.37
2022-10-15T07:16:26.606Z,11.42
2022-10-15T07:19:05.136Z,11.41
2022-10-15T07:21:32.112Z,11.52
2022-10-15T07:26:42.345Z,11.54
2022-10-15T07:29:16.670Z,11.50
2022-10-15T07:34:13.108Z,11.92
2022-10-15T07:37:06.215Z,11.80
2022-10-15T07:39:39.118Z,12.04
2022-10-15T07:42:16.559Z,11.90
2022-10-15T07:44:43.235Z,11.94
2022-10-15T07:47:12.261Z,12.07
2022-10-15T07:49:51.585Z,11.92
2022-10-15T07:52:31.284Z,12.00
2022-10-15T07:54:58.167Z,12.16
2022-10-15T07:57:24.885Z,12.09
2022-10-15T08:00:15.440Z,12.05
2022-10-15T08:02:45.595Z,12.24
2022-10-15T08:05:14.785Z,12.26
2022-10-15T08:07:50.748Z,12.27
2022-10-15T08:10:19.655Z,12.55
2022-10-15T08:12:46.306Z,12.71
2022-10-15T08:15:13.045Z,12.68
2022-10-15T08:17:42.916Z,12.59
2022-10-15T08:20:10.476Z,12.63
2022-10-15T08:22:37.349Z,12.73
2022-10-15T08:25:04.501Z,12.86
2022-10-15T08:27:31.375Z,13.10
2022-10-15T08:30:04.585Z,13.08
2022-10-15T08:32:31.254Z,13.08
2022-10-15T08:34:57.883Z,13.04
2022-10-15T08:37:24.813Z,13.14
2022-10-15T08:39:51.515Z,13.27
2022-10-15T08:42:30.692Z,13.45
2022-10-15T08:45:08.897Z,13.58
2022-10-15T08:48:18.428Z,13.50
2022-10-15T08:51:00.107Z,13.55
2022-10-15T08:53:28.358Z,13.61
2022-10-15T08:56:02.769Z,13.45
2022-10-15T08:58:51.893Z,13.34
2022-10-15T09:01:38.624Z,13.35
2022-10-15T09:04:17.358Z,13.46
2022-10-15T09:06:44.655Z,13.52
2022-10-15T09:09:27.539Z,13.48
2022-10-15T09:12:25.959Z,13.61
2022-10-15T09:14:57.013Z,13.69
2022-10-15T09:17:25.969Z,13.80
2022-10-15T09:19:57.517Z,13.95
2022-10-15T09:22:30.193Z,14.04
2022-10-15T09:24:57.089Z,14.18
2022-10-15T09:27:35.008Z,14.13
2022-10-15T09:30:13.536Z,14.09
2022-10-15T09:32:51.970Z,14.14
2022-10-15T09:35:25.654Z,13.99
2022-10-15T09:38:01.118Z,14.02
2022-10-15T09:40:48.883Z,13.78
2022-10-15T09:43:20.790Z,13.88
2022-10-15T09:45:47.420Z,13.87
2022-10-15T09:48:18.813Z,13.90
2022-10-15T09:50:58.664Z,14.09
2022-10-15T09:53:28.364Z,14.28
2022-10-15T09:56:08.043Z,14.25
2022-10-15T09:58:40.473Z,14.23
2022-10-15T10:01:08.278Z,14.12
2022-10-15T10:03:38.995Z,14.03
2022-10-15T10:06:11.250Z,14.22
2022-10-15T10:08:51.949Z,14.19
2022-10-15T10:11:20.421Z,14.10
2022-10-15T10:13:57.110Z,14.03
2022-10-15T10:16:24.028Z,14.23
2022-10-15T10:19:05.876Z,14.29
2022-10-15T10:21:34.769Z,14.55
2022-10-15T10:24:30.714Z,14.98
2022-10-15T10:26:58.684Z,15.29
2022-10-15T10:29:33.983Z,15.61
2022-10-15T10:32:11.131Z,15.68
2022-10-15T10:34:37.804Z,15.25
2022-10-15T10:37:06.621Z,15.39
2022-10-15T10:39:34.910Z,15.17
2022-10-15T10:42:01.541Z,15.29
2022-10-15T10:44:28.084Z,15.24
2022-10-15T10:47:23.194Z,15.15
2022-10-15T10:50:08.573Z,15.26
2022-10-15T10:52:37.377Z,15.36
2022-10-15T10:55:20.074Z,15.42
2022-10-15T10:57:58.353Z,15.53
2022-10-15T11:00:44.234Z,15.81
2022-10-15T11:03:23.067Z,15.66
2022-10-15T11:06:12.198Z,15.71
2022-10-15T11:08:44.399Z,15.60
2022-10-15T11:11:32.942Z,15.65
2022-10-15T11:14:27.285Z,15.60
2022-10-15T11:17:05.427Z,15.91
2022-10-15T11:20:05.659Z,16.05
2022-10-15T11:22:55.584Z,16.13
2022-10-15T11:25:38.779Z,16.17
2022-10-15T11:28:20.196Z,16.26
2022-10-15T11:30:59.754Z,16.20
2022-10-15T11:33:47.867Z,15.96
2022-10-15T11:36:54.845Z,15.93
2022-10-15T11:39:49.147Z,15.77
2022-10-15T11:42:29.147Z,15.79
2022-10-15T11:45:33.429Z,15.79
2022-10-15T11:48:27.163Z,15.89
2022-10-15T11:52:04.076Z,15.74
2022-10-15T11:54:43.496Z,15.93
2022-10-15T11:57:21.599Z,16.32
2022-10-15T12:00:11.847Z,16.18
2022-10-15T12:02:42.692Z,16.01
2022-10-15T12:05:30.015Z,16.28
2022-10-15T12:08:01.267Z,15.95
2022-10-15T12:10:37.085Z,16.00
2022-10-15T12:13:23.092Z,15.97
2022-10-15T12:15:52.602Z,16.11
2022-10-15T12:18:48.603Z,16.39
2022-10-15T12:21:36.634Z,16.14
2022-10-15T12:24:07.082Z,16.32
2022-10-15T12:26:34.736Z,16.44
2022-10-15T12:29:16.678Z,16.51
2022-10-15T12:31:46.163Z,16.43
2022-10-15T12:34:28.553Z,16.48
2022-10-15T12:37:17.500Z,16.37
2022-10-15T12:39:52.442Z,16.57
2022-10-15T12:42:27.323Z,16.81
2022-10-15T12:44:57.518Z,16.85
2022-10-15T12:47:56.421Z,17.05
2022-10-15T12:50:25.855Z,17.25
2022-10-15T12:52:54.298Z,17.14
2022-10-15T12:55:28.405Z,17.05
2022-10-15T12:58:14.648Z,17.18
2022-10-15T13:00:43.971Z,17.33
2022-10-15T13:03:13.553Z,17.48
2022-10-15T13:05:40.220Z,17.49
2022-10-15T13:08:13.909Z,17.42
2022-10-15T13:10:54.917Z,17.22
2022-10-15T13:13:24.999Z,17.24
2022-10-15T13:16:02.376Z,17.10
2022-10-15T13:18:30.858Z,17.16
2022-10-15T13:20:57.916Z,17.48
2022-10-15T13:23:33.252Z,17.36
2022-10-15T13:26:12.168Z,17.61
2022-10-15T13:28:42.123Z,17.48
2022-10-15T13:31:24.737Z,17.54
2022-10-15T13:33:56.501Z,17.59
2022-10-15T13:36:24.933Z,17.33
2022-10-15T13:38:56.886Z,17.12
2022-10-15T13:41:43.867Z,17.18
2022-10-15T13:44:24.166Z,17.07
2022-10-15T13:46:51.308Z,17.17
2022-10-15T13:49:18.536Z,17.11
2022-10-15T13:51:47.672Z,17.01
2022-10-15T13:54:24.281Z,17.04
2022-10-15T13:56:59.475Z,17.01
2022-10-15T13:59:28.778Z,16.73
2022-10-15T14:02:04.505Z,16.89
2022-10-15T14:04:33.016Z,16.94
2022-10-15T14:07:05.481Z,16.88
2022-10-15T14:09:34.190Z,16.54
2022-10-15T14:12:03.041Z,16.32
2022-10-15T14:14:41.814Z,16.32
2022-10-15T14:17:20.785Z,16.18
2022-10-15T14:20:14.403Z,16.13
2022-10-15T14:22:39.897Z,15.97
2022-10-15T14:25:10.635Z,15.78
2022-10-15T14:27:37.238Z,15.67
2022-10-15T14:30:22.406Z,15.64
2022-10-15T14:32:52.761Z,15.79
2022-10-15T14:35:36.412Z,15.76
2022-10-15T14:38:25.134Z,15.70
2022-10-15T14:41:25.992Z,15.57
2022-10-15T14:44:01.886Z,15.51
2022-10-15T14:46:36.961Z,15.42
2022-10-15T14:49:03.698Z,15.49
2022-10-15T14:51:30.411Z,15.49
2022-10-15T14:53:57.037Z,15.33
2022-10-15T14:56:26.097Z,15.26
2022-10-15T14:58:56.613Z,15.10
2022-10-15T15:01:23.731Z,15.02
2022-10-15T15:03:53.436Z,15.02
2022-10-15T15:06:23.214Z,14.97
2022-10-15T15:08:50.062Z,14.94
2022-10-15T15:11:22.686Z,14.93
2022-10-15T15:13:55.542Z,14.91
2022-10-15T15:16:25.102Z,14.95
2022-10-15T15:18:53.015Z,14.90
2022-10-15T15:21:24.841Z,14.96
2022-10-15T15:23:51.621Z,14.95
2022-10-15T15:26:18.406Z,14.92
2022-10-15T15:28:45.123Z,14.97
2022-10-15T15:31:17.285Z,14.92
2022-10-15T15:33:43.999Z,14.95
2022-10-15T15:36:17.588Z,14.90
2022-10-15T15:38:47.442Z,14.94
2022-10-15T15:41:19.000Z,14.92
2022-10-15T15:43:46.063Z,14.91
2022-10-15T15:46:13.142Z,14.88
2022-10-15T15:48:39.808Z,14.90
2022-10-15T15:51:20.330Z,14.85
2022-10-15T15:53:47.057Z,14.85
2022-10-15T15:56:16.744Z,14.88
2022-10-15T15:58:43.434Z,14.90
2022-10-15T16:01:10.089Z,14.89
2022-10-15T16:03:36.746Z,14.88
2022-10-15T16:06:07.315Z,14.80
2022-10-15T16:08:35.423Z,14.76
2022-10-15T16:11:02.975Z,14.64
2022-10-15T16:13:30.024Z,14.52
2022-10-15T16:16:07.246Z,14.38
2022-10-15T16:18:33.952Z,14.32
2022-10-15T16:21:00.590Z,14.37
2022-10-15T16:23:27.188Z,14.23
2022-10-15T16:25:54.953Z,14.24
2022-10-15T16:28:24.711Z,14.19
2022-10-15T16:30:51.430Z,14.17
2022-10-15T16:33:18.099Z,14.09
2022-10-15T16:35:44.871Z,14.06
2022-10-15T16:38:11.514Z,14.09
2022-10-15T16:41:03.515Z,14.03
2022-10-15T16:43:30.155Z,14.13
2022-10-15T16:45:57.835Z,14.10
2022-10-15T16:48:26.426Z,14.04
2022-10-15T16:51:11.211Z,14.05
2022-10-15T16:53:43.431Z,14.02
2022-10-15T16:56:24.281Z,14.07
2022-10-15T16:58:51.059Z,14.10
2022-10-15T17:01:21.121Z,14.07
2022-10-15T17:03:52.333Z,14.22
2022-10-15T17:06:24.560Z,14.51
2022-10-15T17:08:54.782Z,14.51
2022-10-15T17:11:41.076Z,14.57
2022-10-15T17:14:15.680Z,14.61
2022-10-15T17:16:43.614Z,14.56
2022-10-15T17:19:11.935Z,14.69
2022-10-15T17:21:46.908Z,14.63
2022-10-15T17:24:15.644Z,14.68
2022-10-15T17:26:43.379Z,14.62
2022-10-15T17:29:20.641Z,14.53
2022-10-15T17:31:58.736Z,14.52
2022-10-15T17:34:27.864Z,14.57
2022-10-15T17:36:56.196Z,14.67
2022-10-15T17:39:26.958Z,14.56
2022-10-15T17:41:53.805Z,14.57
2022-10-15T17:44:23.525Z,14.61
2022-10-15T17:47:04.095Z,14.61
2022-10-15T17:49:30.778Z,14.66
2022-10-15T17:51:59.671Z,14.62
2022-10-15T17:54:29.008Z,14.59
2022-10-15T17:56:55.732Z,14.75
2022-10-15T17:59:22.365Z,14.70
2022-10-15T18:02:04.464Z,14.71
2022-10-15T18:04:44.554Z,14.62
2022-10-15T18:07:11.655Z,14.56
2022-10-15T18:09:41.429Z,14.65
2022-10-15T18:12:22.729Z,14.58
2022-10-15T18:15:03.671Z,14.51
2022-10-15T18:17:53.185Z,14.46
2022-10-15T18:20:18.025Z,14.46
2022-10-15T18:22:58.487Z,14.45
2022-10-15T18:25:25.929Z,14.42
2022-10-15T18:28:01.731Z,14.50
2022-10-15T18:30:30.026Z,14.39
2022-10-15T18:32:58.258Z,14.26
2022-10-15T18:35:35.422Z,14.31
2022-10-15T18:38:28.655Z,14.24
2022-10-15T18:41:21.521Z,14.25
2022-10-15T18:44:00.086Z,14.14
2022-10-15T18:46:34.024Z,14.26
2022-10-15T18:49:08.525Z,14.20
2022-10-15T18:51:37.805Z,14.11
2022-10-15T18:54:04.713Z,14.06
2022-10-15T18:56:38.884Z,14.05
2022-10-15T18:59:05.563Z,14.00
2022-10-15T19:01:45.469Z,13.99
2022-10-15T19:04:19.836Z,13.98
2022-10-15T19:06:57.747Z,14.00
2022-10-15T19:09:26.309Z,14.08
2022-10-15T19:11:59.034Z,13.91
2022-10-15T19:14:31.833Z,13.88
2022-10-15T19:16:58.610Z,13.90
2022-10-15T19:19:31.719Z,13.82
2022-10-15T19:21:59.160Z,13.95
2022-10-15T19:24:30.661Z,14.03
2022-10-15T19:26:57.606Z,13.92
2022-10-15T19:29:35.205Z,13.91
2022-10-15T19:32:28.338Z,13.86
2022-10-15T19:34:58.526Z,13.83
2022-10-15T19:37:27.565Z,13.90
2022-10-15T19:40:03.799Z,13.86
2022-10-15T19:42:30.523Z,13.87
2022-10-15T19:44:59.672Z,13.92
2022-10-15T19:47:30.024Z,13.82
2022-10-15T19:50:01.704Z,13.80
2022-10-15T19:52:28.605Z,13.77
2022-10-15T19:54:55.276Z,13.75
2022-10-15T19:57:42.353Z,13.72
2022-10-15T20:00:16.875Z,13.64
2022-10-15T20:02:43.598Z,13.64
2022-10-15T20:05:10.275Z,13.49
2022-10-15T20:07:44.202Z,13.41
2022-10-15T20:10:12.133Z,13.29
2022-10-15T20:12:39.028Z,13.17
2022-10-15T20:15:06.467Z,13.03
2022-10-15T20:17:35.498Z,12.92
2022-10-15T20:20:05.738Z,12.76
2022-10-15T20:22:32.346Z,12.67
2022-10-15T20:24:58.997Z,12.57
2022-10-15T20:27:32.843Z,12.46
2022-10-15T20:29:59.588Z,12.40
2022-10-15T20:32:41.515Z,12.30
2022-10-15T20:35:09.029Z,12.29
2022-10-15T20:37:35.613Z,12.24
2022-10-15T20:40:02.220Z,12.10
2022-10-15T20:42:39.145Z,12.04
2022-10-15T20:45:07.907Z,11.90
2022-10-15T20:47:35.659Z,11.87
2022-10-15T20:50:13.833Z,11.87
2022-10-15T20:52:43.518Z,11.80
2022-10-15T20:55:13.191Z,11.77
2022-10-15T20:57:39.996Z,11.71
2022-10-15T21:00:08.225Z,11.65
2022-10-15T21:02:35.597Z,11.60
2022-10-15T21:05:07.058Z,11.54
2022-10-15T21:07:34.123Z,11.50
2022-10-15T21:10:01.021Z,11.46
2022-10-15T21:12:27.950Z,11.41
2022-10-15T21:14:54.836Z,11.31
2022-10-15T21:17:31.531Z,11.24
2022-10-15T21:19:58.184Z,11.23
2022-10-15T21:22:27.557Z,11.22
2022-10-15T21:24:54.183Z,11.22
2022-10-15T21:27:21.344Z,11.21
2022-10-15T21:29:55.000Z,11.17
2022-10-15T21:32:35.241Z,11.15
2022-10-15T21:35:04.873Z,11.10
2022-10-15T21:37:36.063Z,11.03
2022-10-15T21:40:04.056Z,10.98
2022-10-15T21:42:30.844Z,10.92
2022-10-15T21:44:58.281Z,10.89
2022-10-15T21:47:33.299Z,10.89
2022-10-15T21:49:59.903Z,10.88
2022-10-15T21:52:26.467Z,10.81
2022-10-15T21:55:02.816Z,10.77
2022-10-15T21:57:29.411Z,10.73
2022-10-15T21:59:59.839Z,10.73
2022-10-15T22:02:33.670Z,10.69
2022-10-15T22:05:00.417Z,10.67
2022-10-15T22:07:27.394Z,10.62
2022-10-15T22:10:06.046Z,10.57
2022-10-15T22:12:32.686Z,10.56
2022-10-15T22:14:59.465Z,10.45
2022-10-15T22:17:32.656Z,10.45
2022-10-15T22:19:59.219Z,10.45
2022-10-15T22:22:26.218Z,10.45
2022-10-15T22:25:05.546Z,10.40
2022-10-15T22:27:33.260Z,10.38
2022-10-15T22:29:59.925Z,10.50
2022-10-15T22:32:37.966Z,10.43
2022-10-15T22:35:04.801Z,10.41
2022-10-15T22:37:31.527Z,10.47
2022-10-15T22:39:59.187Z,10.53
2022-10-15T22:42:28.383Z,10.43
2022-10-15T22:44:55.158Z,10.44
2022-10-15T22:47:27.839Z,10.32
2022-10-15T22:49:54.654Z,10.26
2022-10-15T22:52:24.849Z,10.19
2022-10-15T22:54:58.986Z,10.14
2022-10-15T22:57:25.723Z,10.01
2022-10-15T22:59:58.578Z,10.00
2022-10-15T23:02:28.568Z,10.14
2022-10-15T23:04:55.364Z,10.10
2022-10-15T23:07:24.712Z,10.08
2022-10-15T23:09:51.424Z,10.04
2022-10-15T23:12:18.031Z,9.99
2022-10-15T23:14:44.729Z,9.98
2022-10-15T23:17:11.403Z,10.09
2022-10-15T23:19:42.616Z,10.10
2022-10-15T23:22:10.891Z,10.05
2022-10-15T23:24:37.552Z,10.08
2022-10-15T23:27:04.141Z,10.09
2022-10-15T23:29:30.804Z,10.04
2022-10-15T23:31:57.520Z,10.06
2022-10-15T23:34:28.461Z,10.09
2022-10-15T23:36:55.050Z,9.97
2022-10-15T23:39:25.019Z,9.96
2022-10-15T23:41:51.776Z,9.89
2022-10-15T23:44:21.539Z,9.88
2022-10-15T23:46:48.235Z,9.84
2022-10-15T23:49:15.037Z,9.86
2022-10-15T23:51:41.734Z,9.88
2022-10-15T23:54:17.828Z,10.15
2022-10-15T23:56:45.810Z,10.11
2022-10-15T23:59:12.485Z,10.00
